sensor_id;sensor_type;location;lat;lon;timestamp;temperature;humidity
11009;DHT22;5557;51.670;7.788;2023-02-01T00:01:06;4.70;99.90
11009;DHT22;5557;51.670;7.788;2023-02-01T00:03:34;4.70;99.90
11009;DHT22;5557;51.670;7.788;2023-02-01T00:06:01;4.70;99.90
11009;DHT22;5557;51.670;7.788;2023-02-01T00:08:28;4.60;99.90
11009;DHT22;5557;51.670;7.788;2023-02-01T00:11:04;4.60;99.90
11009;DHT22;5557;51.670;7.788;2023-02-01T00:13:32;4.60;99.90
11009;DHT22;5557;51.670;7.788;2023-02-01T00:16:17;4.60;99.90
11009;DHT22;5557;51.670;7.788;2023-02-01T00:18:46;4.60;99.90
11009;DHT22;5557;51.670;7.788;2023-02-01T00:21:15;4.60;99.90
11009;DHT22;5557;51.670;7.788;2023-02-01T00:23:42;4.60;99.90
11009;DHT22;5557;51.670;7.788;2023-02-01T00:26:23;4.70;99.90
11009;DHT22;5557;51.670;7.788;2023-02-01T00:28:53;4.70;99.90
11009;DHT22;5557;51.670;7.788;2023-02-01T00:31:20;4.70;99.90
11009;DHT22;5557;51.670;7.788;2023-02-01T00:33:48;4.70;99.90
11009;DHT22;5557;51.670;7.788;2023-02-01T00:36:15;4.80;99.90
11009;DHT22;5557;51.670;7.788;2023-02-01T00:38:42;4.80;99.90
11009;DHT22;5557;51.670;7.788;2023-02-01T00:41:15;4.80;99.90
11009;DHT22;5557;51.670;7.788;2023-02-01T00:43:42;4.90;99.90
11009;DHT22;5557;51.670;7.788;2023-02-01T00:46:10;5.00;99.90
11009;DHT22;5557;51.670;7.788;2023-02-01T00:48:38;5.00;99.90
11009;DHT22;5557;51.670;7.788;2023-02-01T00:51:07;5.00;99.90
11009;DHT22;5557;51.670;7.788;2023-02-01T00:53:35;5.00;99.90
11009;DHT22;5557;51.670;7.788;2023-02-01T00:56:03;5.10;99.90
11009;DHT22;5557;51.670;7.788;2023-02-01T00:58:30;5.10;99.90
11009;DHT22;5557;51.670;7.788;2023-02-01T01:01:08;5.10;99.90
11009;DHT22;5557;51.670;7.788;2023-02-01T01:03:38;5.20;99.90
11009;DHT22;5557;51.670;7.788;2023-02-01T01:06:10;5.20;99.90
11009;DHT22;5557;51.670;7.788;2023-02-01T01:08:38;5.20;99.90
11009;DHT22;5557;51.670;7.788;2023-02-01T01:11:15;5.20;99.90
11009;DHT22;5557;51.670;7.788;2023-02-01T01:13:43;5.30;99.90
11009;DHT22;5557;51.670;7.788;2023-02-01T01:16:10;5.30;99.90
11009;DHT22;5557;51.670;7.788;2023-02-01T01:18:37;5.20;99.90
11009;DHT22;5557;51.670;7.788;2023-02-01T01:21:05;5.20;99.90
11009;DHT22;5557;51.670;7.788;2023-02-01T01:23:33;5.30;99.90
11009;DHT22;5557;51.670;7.788;2023-02-01T01:26:00;5.30;98.10
11009;DHT22;5557;51.670;7.788;2023-02-01T01:28:27;5.30;96.20
11009;DHT22;5557;51.670;7.788;2023-02-01T01:30:54;5.40;93.40
11009;DHT22;5557;51.670;7.788;2023-02-01T01:33:21;5.40;91.70
11009;DHT22;5557;51.670;7.788;2023-02-01T01:35:48;5.50;88.10
11009;DHT22;5557;51.670;7.788;2023-02-01T01:38:15;5.50;81.80
11009;DHT22;5557;51.670;7.788;2023-02-01T01:40:48;5.40;81.70
11009;DHT22;5557;51.670;7.788;2023-02-01T01:43:19;5.40;81.00
11009;DHT22;5557;51.670;7.788;2023-02-01T01:45:49;5.40;77.10
11009;DHT22;5557;51.670;7.788;2023-02-01T01:48:24;5.40;74.40
11009;DHT22;5557;51.670;7.788;2023-02-01T01:51:19;5.50;72.70
11009;DHT22;5557;51.670;7.788;2023-02-01T01:53:54;5.40;69.30
11009;DHT22;5557;51.670;7.788;2023-02-01T01:56:25;5.50;66.30
11009;DHT22;5557;51.670;7.788;2023-02-01T01:58:54;5.50;61.80
11009;DHT22;5557;51.670;7.788;2023-02-01T02:01:21;5.50;59.40
11009;DHT22;5557;51.670;7.788;2023-02-01T02:03:49;5.50;57.00
11009;DHT22;5557;51.670;7.788;2023-02-01T02:06:39;5.50;51.30
11009;DHT22;5557;51.670;7.788;2023-02-01T02:09:07;5.60;46.00
11009;DHT22;5557;51.670;7.788;2023-02-01T02:11:34;5.60;43.30
11009;DHT22;5557;51.670;7.788;2023-02-01T02:14:01;5.60;45.20
11009;DHT22;5557;51.670;7.788;2023-02-01T02:23:30;5.70;38.30
11009;DHT22;5557;51.670;7.788;2023-02-01T02:26:45;5.70;40.70
11009;DHT22;5557;51.670;7.788;2023-02-01T02:34:39;5.60;43.30
11009;DHT22;5557;51.670;7.788;2023-02-01T02:38:02;5.60;43.30
11009;DHT22;5557;51.670;7.788;2023-02-01T02:43:52;5.70;41.60
11009;DHT22;5557;51.670;7.788;2023-02-01T02:46:48;5.70;42.30
11009;DHT22;5557;51.670;7.788;2023-02-01T02:49:41;5.70;43.40
11009;DHT22;5557;51.670;7.788;2023-02-01T02:52:17;5.70;42.10
11009;DHT22;5557;51.670;7.788;2023-02-01T02:55:05;5.80;38.40
11009;DHT22;5557;51.670;7.788;2023-02-01T02:57:37;5.90;38.30
11009;DHT22;5557;51.670;7.788;2023-02-01T03:00:29;5.90;38.50
11009;DHT22;5557;51.670;7.788;2023-02-01T03:03:16;5.90;37.30
11009;DHT22;5557;51.670;7.788;2023-02-01T03:06:02;5.80;37.50
11009;DHT22;5557;51.670;7.788;2023-02-01T03:08:30;5.70;39.50
11009;DHT22;5557;51.670;7.788;2023-02-01T03:11:16;5.70;41.50
11009;DHT22;5557;51.670;7.788;2023-02-01T03:13:54;5.70;39.70
11009;DHT22;5557;51.670;7.788;2023-02-01T03:19:02;5.70;42.50
11009;DHT22;5557;51.670;7.788;2023-02-01T03:21:55;5.70;41.10
11009;DHT22;5557;51.670;7.788;2023-02-01T03:24:38;5.70;41.90
11009;DHT22;5557;51.670;7.788;2023-02-01T03:27:35;5.70;42.30
11009;DHT22;5557;51.670;7.788;2023-02-01T03:30:25;5.70;42.60
11009;DHT22;5557;51.670;7.788;2023-02-01T03:32:59;5.70;43.90
11009;DHT22;5557;51.670;7.788;2023-02-01T03:38:55;5.70;40.70
11009;DHT22;5557;51.670;7.788;2023-02-01T03:47:39;5.80;38.80
11009;DHT22;5557;51.670;7.788;2023-02-01T03:50:14;5.80;38.40
11009;DHT22;5557;51.670;7.788;2023-02-01T03:53:21;5.80;38.40
11009;DHT22;5557;51.670;7.788;2023-02-01T03:55:42;5.80;36.60
11009;DHT22;5557;51.670;7.788;2023-02-01T03:58:21;5.90;35.20
11009;DHT22;5557;51.670;7.788;2023-02-01T04:00:59;5.90;35.00
11009;DHT22;5557;51.670;7.788;2023-02-01T04:03:27;5.90;33.20
11009;DHT22;5557;51.670;7.788;2023-02-01T04:05:54;5.90;33.50
11009;DHT22;5557;51.670;7.788;2023-02-01T04:08:22;5.90;33.30
11009;DHT22;5557;51.670;7.788;2023-02-01T04:10:49;5.90;34.60
11009;DHT22;5557;51.670;7.788;2023-02-01T04:13:16;5.90;32.60
11009;DHT22;5557;51.670;7.788;2023-02-01T04:15:44;5.90;34.50
11009;DHT22;5557;51.670;7.788;2023-02-01T04:18:12;5.90;34.80
11009;DHT22;5557;51.670;7.788;2023-02-01T04:20:39;5.80;36.00
11009;DHT22;5557;51.670;7.788;2023-02-01T04:23:06;5.80;36.70
11009;DHT22;5557;51.670;7.788;2023-02-01T04:25:33;5.90;35.40
11009;DHT22;5557;51.670;7.788;2023-02-01T04:28:00;5.80;35.90
11009;DHT22;5557;51.670;7.788;2023-02-01T04:30:26;5.90;36.00
11009;DHT22;5557;51.670;7.788;2023-02-01T04:32:54;5.90;35.20
11009;DHT22;5557;51.670;7.788;2023-02-01T04:35:21;5.90;36.50
11009;DHT22;5557;51.670;7.788;2023-02-01T04:37:48;5.90;37.20
11009;DHT22;5557;51.670;7.788;2023-02-01T04:40:15;5.80;37.60
11009;DHT22;5557;51.670;7.788;2023-02-01T04:42:42;5.80;37.00
11009;DHT22;5557;51.670;7.788;2023-02-01T04:45:10;5.80;36.60
11009;DHT22;5557;51.670;7.788;2023-02-01T04:47:37;5.80;37.30
11009;DHT22;5557;51.670;7.788;2023-02-01T04:50:04;5.90;37.70
11009;DHT22;5557;51.670;7.788;2023-02-01T04:52:32;5.80;38.30
11009;DHT22;5557;51.670;7.788;2023-02-01T04:54:59;5.80;39.30
11009;DHT22;5557;51.670;7.788;2023-02-01T04:57:27;5.80;40.30
11009;DHT22;5557;51.670;7.788;2023-02-01T04:59:54;5.80;41.60
11009;DHT22;5557;51.670;7.788;2023-02-01T05:02:21;5.80;40.80
11009;DHT22;5557;51.670;7.788;2023-02-01T05:04:48;5.80;40.10
11009;DHT22;5557;51.670;7.788;2023-02-01T05:07:15;5.90;39.80
11009;DHT22;5557;51.670;7.788;2023-02-01T05:09:42;5.80;40.60
11009;DHT22;5557;51.670;7.788;2023-02-01T05:12:10;5.80;42.50
11009;DHT22;5557;51.670;7.788;2023-02-01T05:14:55;5.70;43.10
11009;DHT22;5557;51.670;7.788;2023-02-01T05:17:22;5.70;44.30
11009;DHT22;5557;51.670;7.788;2023-02-01T05:19:49;5.80;43.40
11009;DHT22;5557;51.670;7.788;2023-02-01T05:22:16;5.70;44.10
11009;DHT22;5557;51.670;7.788;2023-02-01T05:24:43;5.80;44.40
11009;DHT22;5557;51.670;7.788;2023-02-01T05:27:10;5.80;45.20
11009;DHT22;5557;51.670;7.788;2023-02-01T05:29:37;5.80;44.20
11009;DHT22;5557;51.670;7.788;2023-02-01T05:32:04;5.80;45.60
11009;DHT22;5557;51.670;7.788;2023-02-01T05:34:47;5.70;46.40
11009;DHT22;5557;51.670;7.788;2023-02-01T05:37:14;5.80;46.80
11009;DHT22;5557;51.670;7.788;2023-02-01T05:39:41;5.70;47.10
11009;DHT22;5557;51.670;7.788;2023-02-01T05:42:09;5.80;46.90
11009;DHT22;5557;51.670;7.788;2023-02-01T05:44:36;5.80;46.60
11009;DHT22;5557;51.670;7.788;2023-02-01T05:47:03;5.70;47.00
11009;DHT22;5557;51.670;7.788;2023-02-01T05:49:30;5.70;48.00
11009;DHT22;5557;51.670;7.788;2023-02-01T05:51:57;5.70;48.40
11009;DHT22;5557;51.670;7.788;2023-02-01T05:54:26;5.70;48.50
11009;DHT22;5557;51.670;7.788;2023-02-01T05:56:53;5.70;48.40
11009;DHT22;5557;51.670;7.788;2023-02-01T05:59:20;5.60;49.80
11009;DHT22;5557;51.670;7.788;2023-02-01T06:01:47;5.50;50.80
11009;DHT22;5557;51.670;7.788;2023-02-01T06:04:14;5.50;49.90
11009;DHT22;5557;51.670;7.788;2023-02-01T06:06:41;5.50;50.10
11009;DHT22;5557;51.670;7.788;2023-02-01T06:09:08;5.50;51.30
11009;DHT22;5557;51.670;7.788;2023-02-01T06:11:35;5.50;50.50
11009;DHT22;5557;51.670;7.788;2023-02-01T06:14:02;5.60;49.00
11009;DHT22;5557;51.670;7.788;2023-02-01T06:16:29;5.60;48.30
11009;DHT22;5557;51.670;7.788;2023-02-01T06:18:56;5.70;48.40
11009;DHT22;5557;51.670;7.788;2023-02-01T06:21:23;5.70;47.10
11009;DHT22;5557;51.670;7.788;2023-02-01T06:23:51;5.70;46.30
11009;DHT22;5557;51.670;7.788;2023-02-01T06:26:18;5.80;45.50
11009;DHT22;5557;51.670;7.788;2023-02-01T06:28:45;5.80;44.40
11009;DHT22;5557;51.670;7.788;2023-02-01T06:31:12;5.80;44.50
11009;DHT22;5557;51.670;7.788;2023-02-01T06:33:40;5.80;45.40
11009;DHT22;5557;51.670;7.788;2023-02-01T06:36:09;5.80;45.50
11009;DHT22;5557;51.670;7.788;2023-02-01T06:38:36;5.70;47.20
11009;DHT22;5557;51.670;7.788;2023-02-01T06:41:03;5.60;47.70
11009;DHT22;5557;51.670;7.788;2023-02-01T06:43:31;5.60;47.70
11009;DHT22;5557;51.670;7.788;2023-02-01T06:46:00;5.60;48.30
11009;DHT22;5557;51.670;7.788;2023-02-01T06:48:28;5.60;49.30
11009;DHT22;5557;51.670;7.788;2023-02-01T06:50:55;5.60;50.00
11009;DHT22;5557;51.670;7.788;2023-02-01T06:53:22;5.60;49.90
11009;DHT22;5557;51.670;7.788;2023-02-01T06:55:59;5.70;48.40
11009;DHT22;5557;51.670;7.788;2023-02-01T06:58:33;5.70;48.40
11009;DHT22;5557;51.670;7.788;2023-02-01T07:01:08;5.70;49.10
11009;DHT22;5557;51.670;7.788;2023-02-01T07:03:36;5.70;50.40
11009;DHT22;5557;51.670;7.788;2023-02-01T07:06:03;5.70;51.70
11009;DHT22;5557;51.670;7.788;2023-02-01T07:08:33;5.70;51.80
11009;DHT22;5557;51.670;7.788;2023-02-01T07:11:08;5.70;51.20
11009;DHT22;5557;51.670;7.788;2023-02-01T07:13:35;5.70;52.10
11009;DHT22;5557;51.670;7.788;2023-02-01T07:16:04;5.60;52.00
11009;DHT22;5557;51.670;7.788;2023-02-01T07:18:31;5.70;52.20
11009;DHT22;5557;51.670;7.788;2023-02-01T07:20:59;5.70;52.60
11009;DHT22;5557;51.670;7.788;2023-02-01T07:23:26;5.70;52.30
11009;DHT22;5557;51.670;7.788;2023-02-01T07:25:58;5.70;52.80
11009;DHT22;5557;51.670;7.788;2023-02-01T07:28:26;5.70;53.10
11009;DHT22;5557;51.670;7.788;2023-02-01T07:30:54;5.70;53.70
11009;DHT22;5557;51.670;7.788;2023-02-01T07:33:23;5.70;54.80
11009;DHT22;5557;51.670;7.788;2023-02-01T07:35:54;5.70;54.60
11009;DHT22;5557;51.670;7.788;2023-02-01T07:38:20;5.70;54.80
11009;DHT22;5557;51.670;7.788;2023-02-01T07:40:49;5.70;53.40
11009;DHT22;5557;51.670;7.788;2023-02-01T07:43:16;5.80;54.30
11009;DHT22;5557;51.670;7.788;2023-02-01T07:45:43;5.70;53.60
11009;DHT22;5557;51.670;7.788;2023-02-01T07:48:16;5.80;52.90
11009;DHT22;5557;51.670;7.788;2023-02-01T07:50:43;5.80;54.00
11009;DHT22;5557;51.670;7.788;2023-02-01T07:53:10;5.80;53.50
11009;DHT22;5557;51.670;7.788;2023-02-01T07:55:38;5.80;53.10
11009;DHT22;5557;51.670;7.788;2023-02-01T07:58:06;5.80;52.60
11009;DHT22;5557;51.670;7.788;2023-02-01T08:00:33;5.80;52.00
11009;DHT22;5557;51.670;7.788;2023-02-01T08:03:18;5.90;51.50
11009;DHT22;5557;51.670;7.788;2023-02-01T08:05:45;5.90;52.20
11009;DHT22;5557;51.670;7.788;2023-02-01T08:08:12;5.90;53.00
11009;DHT22;5557;51.670;7.788;2023-02-01T08:10:39;5.90;52.90
11009;DHT22;5557;51.670;7.788;2023-02-01T08:13:06;5.90;52.10
11009;DHT22;5557;51.670;7.788;2023-02-01T08:15:33;5.90;52.10
11009;DHT22;5557;51.670;7.788;2023-02-01T08:18:00;5.90;53.40
11009;DHT22;5557;51.670;7.788;2023-02-01T08:20:28;5.90;53.90
11009;DHT22;5557;51.670;7.788;2023-02-01T08:22:56;5.90;54.20
11009;DHT22;5557;51.670;7.788;2023-02-01T08:25:23;5.90;54.60
11009;DHT22;5557;51.670;7.788;2023-02-01T08:27:51;5.90;53.60
11009;DHT22;5557;51.670;7.788;2023-02-01T08:30:18;6.00;53.70
11009;DHT22;5557;51.670;7.788;2023-02-01T08:32:45;5.90;53.70
11009;DHT22;5557;51.670;7.788;2023-02-01T08:35:12;6.00;53.70
11009;DHT22;5557;51.670;7.788;2023-02-01T08:37:39;6.00;53.60
11009;DHT22;5557;51.670;7.788;2023-02-01T08:40:07;6.00;54.00
11009;DHT22;5557;51.670;7.788;2023-02-01T08:42:34;6.00;55.40
11009;DHT22;5557;51.670;7.788;2023-02-01T08:45:29;6.00;56.30
11009;DHT22;5557;51.670;7.788;2023-02-01T08:47:57;6.00;56.40
11009;DHT22;5557;51.670;7.788;2023-02-01T08:50:24;6.00;55.50
11009;DHT22;5557;51.670;7.788;2023-02-01T08:52:52;6.10;55.40
11009;DHT22;5557;51.670;7.788;2023-02-01T08:55:20;6.10;55.60
11009;DHT22;5557;51.670;7.788;2023-02-01T08:57:47;6.10;55.60
11009;DHT22;5557;51.670;7.788;2023-02-01T09:00:16;6.10;54.70
11009;DHT22;5557;51.670;7.788;2023-02-01T09:02:44;6.20;53.80
11009;DHT22;5557;51.670;7.788;2023-02-01T09:05:11;6.20;53.70
11009;DHT22;5557;51.670;7.788;2023-02-01T09:07:38;6.10;53.40
11009;DHT22;5557;51.670;7.788;2023-02-01T09:10:06;6.10;55.20
11009;DHT22;5557;51.670;7.788;2023-02-01T09:12:33;6.10;56.00
11009;DHT22;5557;51.670;7.788;2023-02-01T09:15:01;6.10;56.30
11009;DHT22;5557;51.670;7.788;2023-02-01T09:17:29;6.10;55.40
11009;DHT22;5557;51.670;7.788;2023-02-01T09:19:56;6.10;55.20
11009;DHT22;5557;51.670;7.788;2023-02-01T09:22:23;6.20;55.00
11009;DHT22;5557;51.670;7.788;2023-02-01T09:24:52;6.20;53.90
11009;DHT22;5557;51.670;7.788;2023-02-01T09:27:21;6.20;52.70
11009;DHT22;5557;51.670;7.788;2023-02-01T09:29:48;6.20;53.80
11009;DHT22;5557;51.670;7.788;2023-02-01T09:32:22;6.20;52.50
11009;DHT22;5557;51.670;7.788;2023-02-01T09:34:51;6.30;52.10
11009;DHT22;5557;51.670;7.788;2023-02-01T09:37:19;6.30;51.30
11009;DHT22;5557;51.670;7.788;2023-02-01T09:39:46;6.30;49.90
11009;DHT22;5557;51.670;7.788;2023-02-01T09:42:57;6.40;49.00
11009;DHT22;5557;51.670;7.788;2023-02-01T09:45:55;6.50;48.30
11009;DHT22;5557;51.670;7.788;2023-02-01T09:48:29;6.50;48.50
11009;DHT22;5557;51.670;7.788;2023-02-01T09:50:58;6.50;47.10
11009;DHT22;5557;51.670;7.788;2023-02-01T09:53:38;6.50;45.60
11009;DHT22;5557;51.670;7.788;2023-02-01T09:56:14;6.60;45.80
11009;DHT22;5557;51.670;7.788;2023-02-01T09:58:59;6.60;46.80
11009;DHT22;5557;51.670;7.788;2023-02-01T10:01:28;6.60;43.90
11009;DHT22;5557;51.670;7.788;2023-02-01T10:04:03;6.70;41.90
11009;DHT22;5557;51.670;7.788;2023-02-01T10:08:38;6.70;42.00
11009;DHT22;5557;51.670;7.788;2023-02-01T10:13:36;6.90;39.80
11009;DHT22;5557;51.670;7.788;2023-02-01T10:20:15;6.80;39.00
11009;DHT22;5557;51.670;7.788;2023-02-01T10:26:02;6.80;38.30
11009;DHT22;5557;51.670;7.788;2023-02-01T10:28:33;6.90;37.00
11009;DHT22;5557;51.670;7.788;2023-02-01T10:31:03;6.80;36.40
11009;DHT22;5557;51.670;7.788;2023-02-01T10:33:39;6.90;35.80
11009;DHT22;5557;51.670;7.788;2023-02-01T10:36:40;6.90;35.50
11009;DHT22;5557;51.670;7.788;2023-02-01T10:39:04;6.90;34.10
11009;DHT22;5557;51.670;7.788;2023-02-01T10:41:35;6.90;35.90
11009;DHT22;5557;51.670;7.788;2023-02-01T10:44:05;6.90;33.50
11009;DHT22;5557;51.670;7.788;2023-02-01T10:46:33;6.90;35.50
11009;DHT22;5557;51.670;7.788;2023-02-01T10:49:03;6.90;34.10
11009;DHT22;5557;51.670;7.788;2023-02-01T10:51:44;6.90;36.10
11009;DHT22;5557;51.670;7.788;2023-02-01T10:54:20;6.90;34.80
11009;DHT22;5557;51.670;7.788;2023-02-01T10:56:48;6.80;36.90
11009;DHT22;5557;51.670;7.788;2023-02-01T10:59:23;6.80;36.10
11009;DHT22;5557;51.670;7.788;2023-02-01T11:02:01;6.70;37.10
11009;DHT22;5557;51.670;7.788;2023-02-01T11:04:34;6.70;38.60
11009;DHT22;5557;51.670;7.788;2023-02-01T11:07:19;6.60;39.00
11009;DHT22;5557;51.670;7.788;2023-02-01T11:09:51;6.60;39.00
11009;DHT22;5557;51.670;7.788;2023-02-01T11:12:37;6.70;39.20
11009;DHT22;5557;51.670;7.788;2023-02-01T11:15:36;6.60;39.00
11009;DHT22;5557;51.670;7.788;2023-02-01T11:18:20;6.70;39.10
11009;DHT22;5557;51.670;7.788;2023-02-01T11:20:52;6.60;39.20
11009;DHT22;5557;51.670;7.788;2023-02-01T11:23:21;6.60;40.00
11009;DHT22;5557;51.670;7.788;2023-02-01T11:25:53;6.60;39.90
11009;DHT22;5557;51.670;7.788;2023-02-01T11:28:23;6.60;39.00
11009;DHT22;5557;51.670;7.788;2023-02-01T11:30:54;6.60;38.90
11009;DHT22;5557;51.670;7.788;2023-02-01T11:33:30;6.60;39.00
11009;DHT22;5557;51.670;7.788;2023-02-01T11:36:30;6.60;39.00
11009;DHT22;5557;51.670;7.788;2023-02-01T11:39:30;6.60;40.70
11009;DHT22;5557;51.670;7.788;2023-02-01T11:42:15;6.60;41.60
11009;DHT22;5557;51.670;7.788;2023-02-01T11:44:45;6.70;41.80
11009;DHT22;5557;51.670;7.788;2023-02-01T11:47:30;6.80;39.20
11009;DHT22;5557;51.670;7.788;2023-02-01T11:50:12;6.80;39.90
11009;DHT22;5557;51.670;7.788;2023-02-01T11:53:15;6.80;40.20
11009;DHT22;5557;51.670;7.788;2023-02-01T11:55:56;6.80;40.40
11009;DHT22;5557;51.670;7.788;2023-02-01T11:58:46;6.80;40.00
11009;DHT22;5557;51.670;7.788;2023-02-01T12:01:57;6.90;39.30
11009;DHT22;5557;51.670;7.788;2023-02-01T12:05:00;7.00;40.20
11009;DHT22;5557;51.670;7.788;2023-02-01T12:11:53;6.90;46.20
11009;DHT22;5557;51.670;7.788;2023-02-01T12:19:16;6.70;63.60
11009;DHT22;5557;51.670;7.788;2023-02-01T12:21:06;6.50;74.20
11009;DHT22;5557;51.670;7.788;2023-02-01T12:24:03;6.20;81.50
11009;DHT22;5557;51.670;7.788;2023-02-01T12:33:10;6.00;93.30
11009;DHT22;5557;51.670;7.788;2023-02-01T12:35:47;6.00;95.30
11009;DHT22;5557;51.670;7.788;2023-02-01T12:38:29;6.00;93.00
11009;DHT22;5557;51.670;7.788;2023-02-01T12:41:29;6.00;95.80
11009;DHT22;5557;51.670;7.788;2023-02-01T12:44:08;5.90;98.40
11009;DHT22;5557;51.670;7.788;2023-02-01T12:46:43;5.90;97.90
11009;DHT22;5557;51.670;7.788;2023-02-01T12:51:49;5.80;99.90
11009;DHT22;5557;51.670;7.788;2023-02-01T12:54:39;5.90;99.90
11009;DHT22;5557;51.670;7.788;2023-02-01T12:57:14;5.80;99.90
11009;DHT22;5557;51.670;7.788;2023-02-01T12:59:49;5.90;99.90
11009;DHT22;5557;51.670;7.788;2023-02-01T13:02:54;5.90;99.90
11009;DHT22;5557;51.670;7.788;2023-02-01T13:11:37;5.90;99.90
11009;DHT22;5557;51.670;7.788;2023-02-01T13:14:47;5.80;99.90
11009;DHT22;5557;51.670;7.788;2023-02-01T13:17:27;5.80;99.90
11009;DHT22;5557;51.670;7.788;2023-02-01T13:20:13;5.80;99.90
11009;DHT22;5557;51.670;7.788;2023-02-01T13:22:54;5.80;99.90
11009;DHT22;5557;51.670;7.788;2023-02-01T13:25:33;5.80;99.90
11009;DHT22;5557;51.670;7.788;2023-02-01T13:28:07;5.80;99.90
11009;DHT22;5557;51.670;7.788;2023-02-01T13:33:55;5.90;99.90
11009;DHT22;5557;51.670;7.788;2023-02-01T13:36:54;6.00;99.90
11009;DHT22;5557;51.670;7.788;2023-02-01T13:39:41;6.10;99.90
11009;DHT22;5557;51.670;7.788;2023-02-01T13:42:22;6.10;99.90
11009;DHT22;5557;51.670;7.788;2023-02-01T13:44:56;6.20;98.90
11009;DHT22;5557;51.670;7.788;2023-02-01T13:47:38;6.30;97.30
11009;DHT22;5557;51.670;7.788;2023-02-01T13:50:31;6.30;95.20
11009;DHT22;5557;51.670;7.788;2023-02-01T13:53:26;6.50;92.80
11009;DHT22;5557;51.670;7.788;2023-02-01T13:56:17;6.50;90.70
11009;DHT22;5557;51.670;7.788;2023-02-01T13:58:46;6.60;87.30
11009;DHT22;5557;51.670;7.788;2023-02-01T14:01:42;6.70;84.60
11009;DHT22;5557;51.670;7.788;2023-02-01T14:04:46;6.70;81.00
11009;DHT22;5557;51.670;7.788;2023-02-01T14:07:22;6.70;80.70
11009;DHT22;5557;51.670;7.788;2023-02-01T14:09:49;6.80;78.10
11009;DHT22;5557;51.670;7.788;2023-02-01T14:12:42;6.80;76.00
11009;DHT22;5557;51.670;7.788;2023-02-01T14:15:28;6.80;72.70
11009;DHT22;5557;51.670;7.788;2023-02-01T14:17:55;6.90;70.00
11009;DHT22;5557;51.670;7.788;2023-02-01T14:20:59;6.90;69.70
11009;DHT22;5557;51.670;7.788;2023-02-01T14:24:30;6.90;67.60
11009;DHT22;5557;51.670;7.788;2023-02-01T14:26:51;7.00;67.80
11009;DHT22;5557;51.670;7.788;2023-02-01T14:29:35;7.00;68.30
11009;DHT22;5557;51.670;7.788;2023-02-01T14:32:16;6.90;72.00
11009;DHT22;5557;51.670;7.788;2023-02-01T14:34:53;6.90;71.30
11009;DHT22;5557;51.670;7.788;2023-02-01T14:37:24;6.90;74.80
11009;DHT22;5557;51.670;7.788;2023-02-01T14:40:00;6.80;80.90
11009;DHT22;5557;51.670;7.788;2023-02-01T14:42:43;6.80;80.20
11009;DHT22;5557;51.670;7.788;2023-02-01T14:50:43;6.60;90.80
11009;DHT22;5557;51.670;7.788;2023-02-01T14:55:53;6.70;90.40
11009;DHT22;5557;51.670;7.788;2023-02-01T15:01:24;6.70;91.70
11009;DHT22;5557;51.670;7.788;2023-02-01T15:06:51;6.50;98.30
11009;DHT22;5557;51.670;7.788;2023-02-01T15:09:31;6.40;99.50
11009;DHT22;5557;51.670;7.788;2023-02-01T15:12:26;6.40;98.80
11009;DHT22;5557;51.670;7.788;2023-02-01T15:15:32;6.50;95.60
11009;DHT22;5557;51.670;7.788;2023-02-01T15:18:03;6.60;93.90
11009;DHT22;5557;51.670;7.788;2023-02-01T15:20:32;6.70;90.80
11009;DHT22;5557;51.670;7.788;2023-02-01T15:23:14;6.70;86.90
11009;DHT22;5557;51.670;7.788;2023-02-01T15:25:45;6.80;85.60
11009;DHT22;5557;51.670;7.788;2023-02-01T15:28:14;6.70;88.60
11009;DHT22;5557;51.670;7.788;2023-02-01T15:30:56;6.80;82.80
11009;DHT22;5557;51.670;7.788;2023-02-01T15:33:26;6.80;78.40
11009;DHT22;5557;51.670;7.788;2023-02-01T15:36:07;6.80;76.10
11009;DHT22;5557;51.670;7.788;2023-02-01T15:38:41;6.80;73.50
11009;DHT22;5557;51.670;7.788;2023-02-01T15:41:17;6.90;74.70
11009;DHT22;5557;51.670;7.788;2023-02-01T15:44:17;6.80;74.60
11009;DHT22;5557;51.670;7.788;2023-02-01T15:46:48;6.80;70.30
11009;DHT22;5557;51.670;7.788;2023-02-01T15:49:38;6.80;70.10
11009;DHT22;5557;51.670;7.788;2023-02-01T15:52:39;6.80;70.80
11009;DHT22;5557;51.670;7.788;2023-02-01T15:55:07;6.80;71.90
11009;DHT22;5557;51.670;7.788;2023-02-01T15:57:38;6.80;68.90
11009;DHT22;5557;51.670;7.788;2023-02-01T16:00:18;6.80;67.80
11009;DHT22;5557;51.670;7.788;2023-02-01T16:03:05;6.80;67.70
11009;DHT22;5557;51.670;7.788;2023-02-01T16:05:41;6.90;66.90
11009;DHT22;5557;51.670;7.788;2023-02-01T16:08:20;6.80;68.50
11009;DHT22;5557;51.670;7.788;2023-02-01T16:10:51;6.80;71.50
11009;DHT22;5557;51.670;7.788;2023-02-01T16:13:20;6.70;77.10
11009;DHT22;5557;51.670;7.788;2023-02-01T16:15:47;6.60;85.40
11009;DHT22;5557;51.670;7.788;2023-02-01T16:18:15;6.60;90.50
11009;DHT22;5557;51.670;7.788;2023-02-01T16:20:45;6.50;92.40
11009;DHT22;5557;51.670;7.788;2023-02-01T16:23:14;6.50;93.10
11009;DHT22;5557;51.670;7.788;2023-02-01T16:25:41;6.60;91.40
11009;DHT22;5557;51.670;7.788;2023-02-01T16:28:09;6.50;92.20
11009;DHT22;5557;51.670;7.788;2023-02-01T16:30:36;6.40;97.80
11009;DHT22;5557;51.670;7.788;2023-02-01T16:33:03;6.20;98.10
11009;DHT22;5557;51.670;7.788;2023-02-01T16:35:35;6.20;99.90
11009;DHT22;5557;51.670;7.788;2023-02-01T16:38:04;6.10;99.90
11009;DHT22;5557;51.670;7.788;2023-02-01T16:40:35;6.10;99.90
11009;DHT22;5557;51.670;7.788;2023-02-01T16:43:05;6.10;99.90
11009;DHT22;5557;51.670;7.788;2023-02-01T16:45:36;6.10;99.90
11009;DHT22;5557;51.670;7.788;2023-02-01T16:48:04;6.00;99.90
11009;DHT22;5557;51.670;7.788;2023-02-01T16:50:32;6.00;99.90
11009;DHT22;5557;51.670;7.788;2023-02-01T16:53:01;6.10;99.90
11009;DHT22;5557;51.670;7.788;2023-02-01T16:55:28;6.00;99.90
11009;DHT22;5557;51.670;7.788;2023-02-01T16:57:55;6.00;99.90
11009;DHT22;5557;51.670;7.788;2023-02-01T17:00:22;5.90;99.90
11009;DHT22;5557;51.670;7.788;2023-02-01T17:02:52;5.90;99.90
11009;DHT22;5557;51.670;7.788;2023-02-01T17:05:20;5.90;99.90
11009;DHT22;5557;51.670;7.788;2023-02-01T17:07:48;6.00;99.90
11009;DHT22;5557;51.670;7.788;2023-02-01T17:10:22;5.90;99.90
11009;DHT22;5557;51.670;7.788;2023-02-01T17:13:00;6.00;99.90
11009;DHT22;5557;51.670;7.788;2023-02-01T17:15:31;5.90;99.90
11009;DHT22;5557;51.670;7.788;2023-02-01T17:18:00;5.90;99.90
11009;DHT22;5557;51.670;7.788;2023-02-01T17:20:30;5.80;99.90
11009;DHT22;5557;51.670;7.788;2023-02-01T17:22:59;5.70;99.90
11009;DHT22;5557;51.670;7.788;2023-02-01T17:25:29;5.70;99.90
11009;DHT22;5557;51.670;7.788;2023-02-01T17:27:57;5.70;99.90
11009;DHT22;5557;51.670;7.788;2023-02-01T17:30:24;5.60;99.90
11009;DHT22;5557;51.670;7.788;2023-02-01T17:32:52;5.40;99.90
11009;DHT22;5557;51.670;7.788;2023-02-01T17:35:24;5.30;99.90
11009;DHT22;5557;51.670;7.788;2023-02-01T17:37:52;5.30;99.90
11009;DHT22;5557;51.670;7.788;2023-02-01T17:40:19;5.30;99.90
11009;DHT22;5557;51.670;7.788;2023-02-01T17:42:46;5.20;99.90
11009;DHT22;5557;51.670;7.788;2023-02-01T17:45:32;5.20;99.90
11009;DHT22;5557;51.670;7.788;2023-02-01T17:48:00;5.10;99.90
11009;DHT22;5557;51.670;7.788;2023-02-01T17:50:30;5.10;99.90
11009;DHT22;5557;51.670;7.788;2023-02-01T17:52:57;5.10;99.90
11009;DHT22;5557;51.670;7.788;2023-02-01T17:55:26;5.10;99.90
11009;DHT22;5557;51.670;7.788;2023-02-01T17:57:53;5.10;99.90
11009;DHT22;5557;51.670;7.788;2023-02-01T18:00:20;5.10;99.90
11009;DHT22;5557;51.670;7.788;2023-02-01T18:02:47;5.10;99.90
11009;DHT22;5557;51.670;7.788;2023-02-01T18:05:24;5.00;99.90